sensor_id;sensor_type;location;lat;lon;timestamp;pressure;altitude;pressure_sealevel;temperature;humidity
57412;BME280;43247;52.828;-8.980;2023-03-25T00:00:34;99686.35;;;9.05;85.91
57412;BME280;43247;52.828;-8.980;2023-03-25T00:01:34;99686.17;;;9.07;85.80
57412;BME280;43247;52.828;-8.980;2023-03-25T00:02:34;99689.98;;;9.12;85.69
57412;BME280;43247;52.828;-8.980;2023-03-25T00:03:35;99689.02;;;9.13;85.53
57412;BME280;43247;52.828;-8.980;2023-03-25T00:04:34;99695.09;;;9.12;85.48
57412;BME280;43247;52.828;-8.980;2023-03-25T00:05:38;99697.81;;;9.09;85.55
57412;BME280;43247;52.828;-8.980;2023-03-25T00:06:35;99697.97;;;9.07;85.62
57412;BME280;43247;52.828;-8.980;2023-03-25T00:07:35;99699.73;;;9.06;85.70
57412;BME280;43247;52.828;-8.980;2023-03-25T00:08:36;99700.73;;;9.05;85.61
57412;BME280;43247;52.828;-8.980;2023-03-25T00:09:35;99708.88;;;9.04;85.61
57412;BME280;43247;52.828;-8.980;2023-03-25T00:10:35;99703.26;;;9.03;85.65
57412;BME280;43247;52.828;-8.980;2023-03-25T00:11:35;99709.89;;;9.03;85.61
57412;BME280;43247;52.828;-8.980;2023-03-25T00:12:36;99715.36;;;9.03;85.72
57412;BME280;43247;52.828;-8.980;2023-03-25T00:13:36;99712.66;;;9.02;85.69
57412;BME280;43247;52.828;-8.980;2023-03-25T00:14:36;99711.84;;;9.01;85.71
57412;BME280;43247;52.828;-8.980;2023-03-25T00:15:36;99712.98;;;9.01;85.72
57412;BME280;43247;52.828;-8.980;2023-03-25T00:16:36;99713.14;;;9.01;85.70
57412;BME280;43247;52.828;-8.980;2023-03-25T00:17:37;99718.58;;;9.01;85.74
57412;BME280;43247;52.828;-8.980;2023-03-25T00:18:37;99719.29;;;9.00;85.70
57412;BME280;43247;52.828;-8.980;2023-03-25T00:19:38;99721.45;;;9.01;85.67
57412;BME280;43247;52.828;-8.980;2023-03-25T00:20:38;99723.08;;;9.01;85.67
57412;BME280;43247;52.828;-8.980;2023-03-25T00:21:38;99724.46;;;9.02;85.74
57412;BME280;43247;52.828;-8.980;2023-03-25T00:22:39;99725.63;;;9.01;85.74
57412;BME280;43247;52.828;-8.980;2023-03-25T00:23:39;99727.43;;;9.00;85.67
57412;BME280;43247;52.828;-8.980;2023-03-25T00:24:38;99728.99;;;9.00;85.66
57412;BME280;43247;52.828;-8.980;2023-03-25T00:25:39;99732.82;;;8.99;85.69
57412;BME280;43247;52.828;-8.980;2023-03-25T00:26:39;99732.59;;;8.99;85.75
57412;BME280;43247;52.828;-8.980;2023-03-25T00:27:39;99732.63;;;8.98;85.70
57412;BME280;43247;52.828;-8.980;2023-03-25T00:28:40;99732.66;;;8.98;85.74
57412;BME280;43247;52.828;-8.980;2023-03-25T00:29:40;99735.84;;;8.98;85.71
57412;BME280;43247;52.828;-8.980;2023-03-25T00:30:42;99739.15;;;8.97;85.69
57412;BME280;43247;52.828;-8.980;2023-03-25T00:31:41;99744.44;;;8.97;85.75
57412;BME280;43247;52.828;-8.980;2023-03-25T00:32:41;99751.45;;;8.97;85.70
57412;BME280;43247;52.828;-8.980;2023-03-25T00:33:41;99768.47;;;8.97;85.86
57412;BME280;43247;52.828;-8.980;2023-03-25T00:34:41;99764.97;;;8.97;85.80
57412;BME280;43247;52.828;-8.980;2023-03-25T00:35:42;99756.18;;;8.96;85.82
57412;BME280;43247;52.828;-8.980;2023-03-25T00:36:42;99755.51;;;8.95;86.17
57412;BME280;43247;52.828;-8.980;2023-03-25T00:37:42;99759.28;;;8.96;86.15
57412;BME280;43247;52.828;-8.980;2023-03-25T00:38:43;99765.82;;;8.94;86.11
57412;BME280;43247;52.828;-8.980;2023-03-25T00:39:43;99766.78;;;8.94;85.95
57412;BME280;43247;52.828;-8.980;2023-03-25T00:40:43;99767.97;;;8.94;86.03
57412;BME280;43247;52.828;-8.980;2023-03-25T00:41:43;99761.02;;;8.94;85.98
57412;BME280;43247;52.828;-8.980;2023-03-25T00:42:43;99762.19;;;8.93;85.93
57412;BME280;43247;52.828;-8.980;2023-03-25T00:43:44;99763.88;;;8.93;85.88
57412;BME280;43247;52.828;-8.980;2023-03-25T00:44:49;99765.75;;;8.94;85.79
57412;BME280;43247;52.828;-8.980;2023-03-25T00:45:45;99768.48;;;8.93;85.87
57412;BME280;43247;52.828;-8.980;2023-03-25T00:46:45;99769.97;;;8.93;85.87
57412;BME280;43247;52.828;-8.980;2023-03-25T00:47:45;99774.41;;;8.94;85.82
57412;BME280;43247;52.828;-8.980;2023-03-25T00:48:46;99774.82;;;8.94;85.84
57412;BME280;43247;52.828;-8.980;2023-03-25T00:49:47;99775.70;;;8.94;85.79
57412;BME280;43247;52.828;-8.980;2023-03-25T00:50:46;99774.45;;;8.94;85.69
57412;BME280;43247;52.828;-8.980;2023-03-25T00:51:47;99774.40;;;8.94;85.59
57412;BME280;43247;52.828;-8.980;2023-03-25T00:52:47;99772.09;;;8.93;85.59
57412;BME280;43247;52.828;-8.980;2023-03-25T00:53:49;99776.34;;;8.93;85.53
57412;BME280;43247;52.828;-8.980;2023-03-25T00:54:47;99776.32;;;8.93;85.62
57412;BME280;43247;52.828;-8.980;2023-03-25T00:55:47;99785.89;;;8.93;85.56
57412;BME280;43247;52.828;-8.980;2023-03-25T00:56:48;99791.07;;;8.92;85.51
57412;BME280;43247;52.828;-8.980;2023-03-25T00:57:48;99793.32;;;8.92;85.50
57412;BME280;43247;52.828;-8.980;2023-03-25T00:58:48;99792.15;;;8.91;85.46
57412;BME280;43247;52.828;-8.980;2023-03-25T00:59:48;99789.79;;;8.91;85.49
57412;BME280;43247;52.828;-8.980;2023-03-25T01:00:48;99795.43;;;8.90;85.62
57412;BME280;43247;52.828;-8.980;2023-03-25T01:01:48;99792.32;;;8.89;85.58
57412;BME280;43247;52.828;-8.980;2023-03-25T01:02:49;99792.23;;;8.89;85.59
57412;BME280;43247;52.828;-8.980;2023-03-25T01:03:49;99794.38;;;8.89;85.56
57412;BME280;43247;52.828;-8.980;2023-03-25T01:04:49;99796.64;;;8.89;85.59
57412;BME280;43247;52.828;-8.980;2023-03-25T01:05:49;99793.57;;;8.88;85.66
57412;BME280;43247;52.828;-8.980;2023-03-25T01:06:49;99797.29;;;8.88;85.55
57412;BME280;43247;52.828;-8.980;2023-03-25T01:07:49;99798.40;;;8.88;85.63
57412;BME280;43247;52.828;-8.980;2023-03-25T01:08:51;99801.96;;;8.88;85.74
57412;BME280;43247;52.828;-8.980;2023-03-25T01:09:50;99808.47;;;8.88;85.74
57412;BME280;43247;52.828;-8.980;2023-03-25T01:10:51;99808.82;;;8.87;85.72
57412;BME280;43247;52.828;-8.980;2023-03-25T01:11:50;99801.02;;;8.86;85.81
57412;BME280;43247;52.828;-8.980;2023-03-25T01:12:50;99801.09;;;8.86;85.87
57412;BME280;43247;52.828;-8.980;2023-03-25T01:13:53;99802.96;;;8.85;86.09
57412;BME280;43247;52.828;-8.980;2023-03-25T01:14:51;99800.52;;;8.86;86.06
57412;BME280;43247;52.828;-8.980;2023-03-25T01:15:52;99803.62;;;8.86;86.13
57412;BME280;43247;52.828;-8.980;2023-03-25T01:16:52;99808.17;;;8.87;86.12
57412;BME280;43247;52.828;-8.980;2023-03-25T01:17:52;99811.67;;;8.87;86.25
57412;BME280;43247;52.828;-8.980;2023-03-25T01:18:53;99814.06;;;8.87;86.32
57412;BME280;43247;52.828;-8.980;2023-03-25T01:19:52;99814.92;;;8.87;86.36
57412;BME280;43247;52.828;-8.980;2023-03-25T01:20:52;99817.51;;;8.88;86.31
57412;BME280;43247;52.828;-8.980;2023-03-25T01:21:53;99817.50;;;8.88;86.34
57412;BME280;43247;52.828;-8.980;2023-03-25T01:22:53;99815.38;;;8.89;86.34
57412;BME280;43247;52.828;-8.980;2023-03-25T01:23:53;99817.52;;;8.89;86.51
57412;BME280;43247;52.828;-8.980;2023-03-25T01:24:53;99818.75;;;8.89;86.54
57412;BME280;43247;52.828;-8.980;2023-03-25T01:25:53;99819.42;;;8.89;86.64
57412;BME280;43247;52.828;-8.980;2023-03-25T01:26:53;99821.27;;;8.89;86.55
57412;BME280;43247;52.828;-8.980;2023-03-25T01:27:54;99824.85;;;8.89;86.61
57412;BME280;43247;52.828;-8.980;2023-03-25T01:28:54;99822.22;;;8.89;86.63
57412;BME280;43247;52.828;-8.980;2023-03-25T01:29:54;99827.71;;;8.88;86.74
57412;BME280;43247;52.828;-8.980;2023-03-25T01:30:59;99829.48;;;8.89;86.83
57412;BME280;43247;52.828;-8.980;2023-03-25T01:31:55;99823.00;;;8.88;86.96
57412;BME280;43247;52.828;-8.980;2023-03-25T01:32:55;99834.58;;;8.88;87.08
57412;BME280;43247;52.828;-8.980;2023-03-25T01:33:55;99834.15;;;8.89;87.08
57412;BME280;43247;52.828;-8.980;2023-03-25T01:34:55;99837.55;;;8.89;87.20
57412;BME280;43247;52.828;-8.980;2023-03-25T01:35:56;99835.37;;;8.90;87.14
57412;BME280;43247;52.828;-8.980;2023-03-25T01:36:56;99832.57;;;8.91;87.12
57412;BME280;43247;52.828;-8.980;2023-03-25T01:37:56;99835.41;;;8.91;87.31
57412;BME280;43247;52.828;-8.980;2023-03-25T01:38:58;99834.96;;;8.89;87.37
57412;BME280;43247;52.828;-8.980;2023-03-25T01:39:57;99846.21;;;8.90;87.40
57412;BME280;43247;52.828;-8.980;2023-03-25T01:40:57;99850.77;;;8.91;87.41
57412;BME280;43247;52.828;-8.980;2023-03-25T01:41:57;99849.54;;;8.92;87.41
57412;BME280;43247;52.828;-8.980;2023-03-25T01:42:58;99851.38;;;8.94;87.43
57412;BME280;43247;52.828;-8.980;2023-03-25T01:44:04;99854.16;;;8.92;87.48
57412;BME280;43247;52.828;-8.980;2023-03-25T01:45:59;99858.24;;;8.94;87.56
57412;BME280;43247;52.828;-8.980;2023-03-25T01:47:03;99861.04;;;8.94;87.69
57412;BME280;43247;52.828;-8.980;2023-03-25T01:48:04;99860.48;;;8.93;87.69
57412;BME280;43247;52.828;-8.980;2023-03-25T01:49:03;99861.72;;;8.96;87.70
57412;BME280;43247;52.828;-8.980;2023-03-25T01:50:00;99857.58;;;8.98;87.66
57412;BME280;43247;52.828;-8.980;2023-03-25T01:51:04;99856.66;;;8.98;87.70
57412;BME280;43247;52.828;-8.980;2023-03-25T01:52:03;99859.08;;;8.99;87.61
57412;BME280;43247;52.828;-8.980;2023-03-25T01:53:04;99860.31;;;8.99;87.64
57412;BME280;43247;52.828;-8.980;2023-03-25T01:54:03;99862.44;;;8.99;87.76
57412;BME280;43247;52.828;-8.980;2023-03-25T01:55:02;99863.30;;;8.98;87.81
57412;BME280;43247;52.828;-8.980;2023-03-25T01:56:04;99864.91;;;9.00;87.81
57412;BME280;43247;52.828;-8.980;2023-03-25T01:57:02;99866.65;;;9.00;87.85
57412;BME280;43247;52.828;-8.980;2023-03-25T01:58:05;99872.94;;;9.00;87.90
57412;BME280;43247;52.828;-8.980;2023-03-25T01:59:05;99867.31;;;8.99;87.95
57412;BME280;43247;52.828;-8.980;2023-03-25T02:00:05;99873.56;;;9.00;87.97
57412;BME280;43247;52.828;-8.980;2023-03-25T02:01:04;99877.23;;;9.00;87.97
57412;BME280;43247;52.828;-8.980;2023-03-25T02:02:05;99880.58;;;9.01;88.00
57412;BME280;43247;52.828;-8.980;2023-03-25T02:03:04;99880.82;;;9.02;87.94
57412;BME280;43247;52.828;-8.980;2023-03-25T02:04:05;99884.31;;;9.02;87.96
57412;BME280;43247;52.828;-8.980;2023-03-25T02:05:08;99897.32;;;9.03;88.02
57412;BME280;43247;52.828;-8.980;2023-03-25T02:06:08;99898.05;;;9.03;88.08
57412;BME280;43247;52.828;-8.980;2023-03-25T02:07:06;99896.37;;;9.02;88.10
57412;BME280;43247;52.828;-8.980;2023-03-25T02:08:06;99891.53;;;9.03;88.09
57412;BME280;43247;52.828;-8.980;2023-03-25T02:09:06;99890.11;;;9.04;88.04
57412;BME280;43247;52.828;-8.980;2023-03-25T02:10:09;99889.82;;;9.04;88.06
57412;BME280;43247;52.828;-8.980;2023-03-25T02:11:08;99898.86;;;9.05;88.07
57412;BME280;43247;52.828;-8.980;2023-03-25T02:12:07;99891.48;;;9.08;87.96
57412;BME280;43247;52.828;-8.980;2023-03-25T02:13:08;99896.10;;;9.07;88.02
57412;BME280;43247;52.828;-8.980;2023-03-25T02:14:11;99897.18;;;9.06;87.97
57412;BME280;43247;52.828;-8.980;2023-03-25T02:15:10;99900.89;;;9.07;87.99
57412;BME280;43247;52.828;-8.980;2023-03-25T02:16:19;99902.31;;;9.08;87.89
57412;BME280;43247;52.828;-8.980;2023-03-25T02:17:15;99904.42;;;9.06;88.00
57412;BME280;43247;52.828;-8.980;2023-03-25T02:18:21;99901.97;;;9.07;87.99
57412;BME280;43247;52.828;-8.980;2023-03-25T02:20:27;99912.99;;;9.07;87.89
57412;BME280;43247;52.828;-8.980;2023-03-25T02:26:22;99919.86;;;9.07;88.04
57412;BME280;43247;52.828;-8.980;2023-03-25T02:27:19;99921.72;;;9.08;88.03
57412;BME280;43247;52.828;-8.980;2023-03-25T02:28:18;99923.85;;;9.09;88.03
57412;BME280;43247;52.828;-8.980;2023-03-25T02:29:20;99922.90;;;9.09;88.05
57412;BME280;43247;52.828;-8.980;2023-03-25T02:31:26;99920.83;;;9.11;88.03
57412;BME280;43247;52.828;-8.980;2023-03-25T02:32:22;99925.56;;;9.09;88.10
57412;BME280;43247;52.828;-8.980;2023-03-25T02:33:26;99929.45;;;9.10;88.07
57412;BME280;43247;52.828;-8.980;2023-03-25T02:34:28;99933.05;;;9.10;88.11
57412;BME280;43247;52.828;-8.980;2023-03-25T02:35:28;99934.63;;;9.11;88.09
57412;BME280;43247;52.828;-8.980;2023-03-25T02:36:27;99932.52;;;9.12;88.08
57412;BME280;43247;52.828;-8.980;2023-03-25T02:37:33;99933.76;;;9.12;88.10
57412;BME280;43247;52.828;-8.980;2023-03-25T02:38:21;99932.60;;;9.11;88.16
57412;BME280;43247;52.828;-8.980;2023-03-25T02:39:20;99931.51;;;9.11;88.14
57412;BME280;43247;52.828;-8.980;2023-03-25T02:40:18;99936.19;;;9.11;88.11
57412;BME280;43247;52.828;-8.980;2023-03-25T02:41:21;99936.43;;;9.12;88.04
57412;BME280;43247;52.828;-8.980;2023-03-25T02:42:21;99938.28;;;9.12;88.01
57412;BME280;43247;52.828;-8.980;2023-03-25T02:43:21;99945.11;;;9.11;88.07
57412;BME280;43247;52.828;-8.980;2023-03-25T02:44:22;99944.44;;;9.13;87.95
57412;BME280;43247;52.828;-8.980;2023-03-25T02:45:21;99947.18;;;9.12;87.99
57412;BME280;43247;52.828;-8.980;2023-03-25T02:46:18;99945.89;;;9.11;87.94
57412;BME280;43247;52.828;-8.980;2023-03-25T02:47:19;99949.32;;;9.11;87.89
57412;BME280;43247;52.828;-8.980;2023-03-25T02:48:21;99944.96;;;9.13;87.82
57412;BME280;43247;52.828;-8.980;2023-03-25T02:49:22;99956.17;;;9.13;87.91
57412;BME280;43247;52.828;-8.980;2023-03-25T02:50:22;99948.56;;;9.11;87.90
57412;BME280;43247;52.828;-8.980;2023-03-25T02:51:22;99953.04;;;9.12;87.79
57412;BME280;43247;52.828;-8.980;2023-03-25T02:52:22;99956.56;;;9.12;87.74
57412;BME280;43247;52.828;-8.980;2023-03-25T02:53:22;99960.24;;;9.12;87.86
57412;BME280;43247;52.828;-8.980;2023-03-25T02:54:20;99964.13;;;9.12;87.79
57412;BME280;43247;52.828;-8.980;2023-03-25T02:55:21;99964.49;;;9.12;87.73
57412;BME280;43247;52.828;-8.980;2023-03-25T02:56:21;99970.97;;;9.12;87.76
57412;BME280;43247;52.828;-8.980;2023-03-25T02:57:21;99974.14;;;9.12;87.83
57412;BME280;43247;52.828;-8.980;2023-03-25T02:58:20;99962.18;;;9.13;87.77
57412;BME280;43247;52.828;-8.980;2023-03-25T02:59:20;99974.91;;;9.11;87.88
57412;BME280;43247;52.828;-8.980;2023-03-25T03:00:23;99973.53;;;9.10;87.92
57412;BME280;43247;52.828;-8.980;2023-03-25T03:01:21;99975.94;;;9.11;87.86
57412;BME280;43247;52.828;-8.980;2023-03-25T03:02:24;99974.60;;;9.12;87.91
57412;BME280;43247;52.828;-8.980;2023-03-25T03:03:21;99975.60;;;9.12;87.98
57412;BME280;43247;52.828;-8.980;2023-03-25T03:04:21;99977.02;;;9.12;88.00
57412;BME280;43247;52.828;-8.980;2023-03-25T03:05:23;99975.95;;;9.12;87.87
57412;BME280;43247;52.828;-8.980;2023-03-25T03:06:22;99978.11;;;9.13;87.95
57412;BME280;43247;52.828;-8.980;2023-03-25T03:07:26;99977.29;;;9.12;88.03
57412;BME280;43247;52.828;-8.980;2023-03-25T03:08:34;99976.92;;;9.12;88.03
57412;BME280;43247;52.828;-8.980;2023-03-25T03:09:34;99977.34;;;9.13;87.96
57412;BME280;43247;52.828;-8.980;2023-03-25T03:10:25;99977.63;;;9.13;87.92
57412;BME280;43247;52.828;-8.980;2023-03-25T03:11:26;99978.30;;;9.14;87.95
57412;BME280;43247;52.828;-8.980;2023-03-25T03:12:35;99984.50;;;9.13;87.93
57412;BME280;43247;52.828;-8.980;2023-03-25T03:13:31;99991.88;;;9.15;87.90
57412;BME280;43247;52.828;-8.980;2023-03-25T03:14:33;99986.02;;;9.14;87.95
57412;BME280;43247;52.828;-8.980;2023-03-25T03:15:32;99992.55;;;9.13;88.03
57412;BME280;43247;52.828;-8.980;2023-03-25T03:16:30;99995.50;;;9.14;87.88
57412;BME280;43247;52.828;-8.980;2023-03-25T03:17:27;99995.81;;;9.13;87.97
57412;BME280;43247;52.828;-8.980;2023-03-25T03:18:34;99992.80;;;9.12;87.88
57412;BME280;43247;52.828;-8.980;2023-03-25T03:19:33;99988.82;;;9.13;87.81
57412;BME280;43247;52.828;-8.980;2023-03-25T03:20:31;99994.74;;;9.12;87.75
57412;BME280;43247;52.828;-8.980;2023-03-25T03:21:30;99991.35;;;9.12;87.76
57412;BME280;43247;52.828;-8.980;2023-03-25T03:22:36;99991.64;;;9.11;87.67
57412;BME280;43247;52.828;-8.980;2023-03-25T03:23:28;99996.18;;;9.12;87.67
57412;BME280;43247;52.828;-8.980;2023-03-25T03:24:28;99994.50;;;9.12;87.64
57412;BME280;43247;52.828;-8.980;2023-03-25T03:25:29;99996.01;;;9.12;87.67
57412;BME280;43247;52.828;-8.980;2023-03-25T03:26:30;99998.96;;;9.13;87.57
57412;BME280;43247;52.828;-8.980;2023-03-25T03:27:29;99998.35;;;9.13;87.58
57412;BME280;43247;52.828;-8.980;2023-03-25T03:28:30;99997.56;;;9.12;87.61
57412;BME280;43247;52.828;-8.980;2023-03-25T03:29:30;100000.55;;;9.11;87.51
57412;BME280;43247;52.828;-8.980;2023-03-25T03:30:31;99996.50;;;9.11;87.46
57412;BME280;43247;52.828;-8.980;2023-03-25T03:31:33;99999.30;;;9.12;87.48
57412;BME280;43247;52.828;-8.980;2023-03-25T03:32:31;99995.87;;;9.11;87.38
57412;BME280;43247;52.828;-8.980;2023-03-25T03:33:30;100001.18;;;9.12;87.32
57412;BME280;43247;52.828;-8.980;2023-03-25T03:34:31;99999.32;;;9.11;87.40
57412;BME280;43247;52.828;-8.980;2023-03-25T03:35:31;99999.75;;;9.11;87.42
57412;BME280;43247;52.828;-8.980;2023-03-25T03:36:32;100001.33;;;9.08;87.57
57412;BME280;43247;52.828;-8.980;2023-03-25T03:37:32;100001.24;;;9.07;87.44
57412;BME280;43247;52.828;-8.980;2023-03-25T03:38:31;100005.78;;;9.08;87.25
57412;BME280;43247;52.828;-8.980;2023-03-25T03:39:31;100003.03;;;9.07;87.36
57412;BME280;43247;52.828;-8.980;2023-03-25T03:40:30;100005.64;;;9.07;87.42
57412;BME280;43247;52.828;-8.980;2023-03-25T03:41:30;100001.63;;;9.06;87.44
57412;BME280;43247;52.828;-8.980;2023-03-25T03:42:33;100004.46;;;9.08;87.45
57412;BME280;43247;52.828;-8.980;2023-03-25T03:43:32;100002.00;;;9.07;87.34
57412;BME280;43247;52.828;-8.980;2023-03-25T03:44:32;99997.89;;;9.06;87.37
57412;BME280;43247;52.828;-8.980;2023-03-25T03:45:33;99998.40;;;9.05;87.49
57412;BME280;43247;52.828;-8.980;2023-03-25T03:46:34;99993.49;;;9.05;87.29
57412;BME280;43247;52.828;-8.980;2023-03-25T03:47:33;99997.45;;;9.05;87.39
57412;BME280;43247;52.828;-8.980;2023-03-25T03:48:32;99995.04;;;9.05;87.37
57412;BME280;43247;52.828;-8.980;2023-03-25T03:49:35;99999.65;;;9.05;87.37
57412;BME280;43247;52.828;-8.980;2023-03-25T03:50:34;100003.02;;;9.05;87.37
57412;BME280;43247;52.828;-8.980;2023-03-25T03:51:35;100002.62;;;9.04;87.20
57412;BME280;43247;52.828;-8.980;2023-03-25T03:52:35;100002.33;;;9.05;87.16
57412;BME280;43247;52.828;-8.980;2023-03-25T03:53:35;100005.29;;;9.04;87.24
57412;BME280;43247;52.828;-8.980;2023-03-25T03:54:36;100004.36;;;9.04;87.24
57412;BME280;43247;52.828;-8.980;2023-03-25T03:55:34;100006.12;;;9.02;87.28
57412;BME280;43247;52.828;-8.980;2023-03-25T03:56:36;100011.05;;;9.03;87.22
57412;BME280;43247;52.828;-8.980;2023-03-25T03:57:35;100007.90;;;9.03;87.30
57412;BME280;43247;52.828;-8.980;2023-03-25T03:58:36;100010.18;;;9.02;87.28
57412;BME280;43247;52.828;-8.980;2023-03-25T03:59:37;100014.23;;;9.02;87.25
57412;BME280;43247;52.828;-8.980;2023-03-25T04:00:37;100014.34;;;9.02;87.07
57412;BME280;43247;52.828;-8.980;2023-03-25T04:01:39;100016.43;;;9.03;87.09
57412;BME280;43247;52.828;-8.980;2023-03-25T04:02:37;100017.50;;;9.02;87.20
57412;BME280;43247;52.828;-8.980;2023-03-25T04:03:36;100018.72;;;9.02;87.18
57412;BME280;43247;52.828;-8.980;2023-03-25T04:04:34;100016.27;;;9.01;87.19
57412;BME280;43247;52.828;-8.980;2023-03-25T04:05:35;100016.17;;;9.00;87.20
57412;BME280;43247;52.828;-8.980;2023-03-25T04:06:37;100017.80;;;9.00;87.07
57412;BME280;43247;52.828;-8.980;2023-03-25T04:07:39;100022.49;;;9.01;87.06
57412;BME280;43247;52.828;-8.980;2023-03-25T04:08:41;100021.13;;;9.00;87.05
57412;BME280;43247;52.828;-8.980;2023-03-25T04:09:38;100024.89;;;9.00;87.01
57412;BME280;43247;52.828;-8.980;2023-03-25T04:10:39;100030.85;;;9.00;86.95
57412;BME280;43247;52.828;-8.980;2023-03-25T04:11:41;100029.92;;;8.98;87.09
57412;BME280;43247;52.828;-8.980;2023-03-25T04:12:37;100028.35;;;8.97;87.09
57412;BME280;43247;52.828;-8.980;2023-03-25T04:13:39;100034.21;;;8.97;87.13
57412;BME280;43247;52.828;-8.980;2023-03-25T04:14:36;100033.68;;;8.97;87.05
57412;BME280;43247;52.828;-8.980;2023-03-25T04:15:36;100039.67;;;8.97;87.07
57412;BME280;43247;52.828;-8.980;2023-03-25T04:16:36;100039.05;;;8.96;87.07
57412;BME280;43247;52.828;-8.980;2023-03-25T04:17:37;100047.25;;;8.97;87.05
57412;BME280;43247;52.828;-8.980;2023-03-25T04:18:37;100043.80;;;8.97;87.11
57412;BME280;43247;52.828;-8.980;2023-03-25T04:19:37;100050.28;;;8.95;87.12
57412;BME280;43247;52.828;-8.980;2023-03-25T04:20:38;100052.71;;;8.95;87.04
57412;BME280;43247;52.828;-8.980;2023-03-25T04:21:37;100051.82;;;8.96;86.93
57412;BME280;43247;52.828;-8.980;2023-03-25T04:22:37;100055.73;;;8.96;86.92
57412;BME280;43247;52.828;-8.980;2023-03-25T04:23:38;100057.97;;;8.96;86.94
57412;BME280;43247;52.828;-8.980;2023-03-25T04:24:38;100061.24;;;8.95;86.84
57412;BME280;43247;52.828;-8.980;2023-03-25T04:25:39;100061.49;;;8.95;86.93
57412;BME280;43247;52.828;-8.980;2023-03-25T04:26:39;100064.87;;;8.95;86.91
57412;BME280;43247;52.828;-8.980;2023-03-25T04:27:39;100065.95;;;8.94;86.97
57412;BME280;43247;52.828;-8.980;2023-03-25T04:28:39;100067.07;;;8.95;86.91
57412;BME280;43247;52.828;-8.980;2023-03-25T04:29:39;100063.37;;;8.93;86.81
57412;BME280;43247;52.828;-8.980;2023-03-25T04:30:40;100063.27;;;8.93;86.82
57412;BME280;43247;52.828;-8.980;2023-03-25T04:31:40;100064.67;;;8.93;86.89
57412;BME280;43247;52.828;-8.980;2023-03-25T04:32:40;100068.66;;;8.93;86.79
57412;BME280;43247;52.828;-8.980;2023-03-25T04:33:41;100069.92;;;8.93;86.78
57412;BME280;43247;52.828;-8.980;2023-03-25T04:34:41;100072.46;;;8.93;86.80
57412;BME280;43247;52.828;-8.980;2023-03-25T04:35:42;100075.94;;;8.93;86.76
57412;BME280;43247;52.828;-8.980;2023-03-25T04:36:42;100073.25;;;8.92;86.72
57412;BME280;43247;52.828;-8.980;2023-03-25T04:37:42;100076.78;;;8.91;86.71
57412;BME280;43247;52.828;-8.980;2023-03-25T04:38:42;100076.36;;;8.91;86.78
57412;BME280;43247;52.828;-8.980;2023-03-25T04:39:42;100076.15;;;8.90;86.77
57412;BME280;43247;52.828;-8.980;2023-03-25T04:40:43;100077.08;;;8.89;86.90
57412;BME280;43247;52.828;-8.980;2023-03-25T04:41:43;100081.14;;;8.90;86.86
57412;BME280;43247;52.828;-8.980;2023-03-25T04:42:43;100081.83;;;8.89;86.75
57412;BME280;43247;52.828;-8.980;2023-03-25T04:43:43;100084.63;;;8.89;86.77
57412;BME280;43247;52.828;-8.980;2023-03-25T04:44:43;100087.40;;;8.88;86.77
57412;BME280;43247;52.828;-8.980;2023-03-25T04:45:43;100086.78;;;8.88;86.73
57412;BME280;43247;52.828;-8.980;2023-03-25T04:46:44;100089.76;;;8.88;86.74
57412;BME280;43247;52.828;-8.980;2023-03-25T04:47:45;100090.86;;;8.86;86.79
57412;BME280;43247;52.828;-8.980;2023-03-25T04:48:44;100095.07;;;8.87;86.73
57412;BME280;43247;52.828;-8.980;2023-03-25T04:49:44;100094.15;;;8.86;86.73
57412;BME280;43247;52.828;-8.980;2023-03-25T04:50:44;100093.54;;;8.86;86.84
57412;BME280;43247;52.828;-8.980;2023-03-25T04:51:44;100096.57;;;8.86;86.79
57412;BME280;43247;52.828;-8.980;2023-03-25T04:52:45;100094.64;;;8.86;86.78
57412;BME280;43247;52.828;-8.980;2023-03-25T04:53:45;100096.98;;;8.85;86.74
57412;BME280;43247;52.828;-8.980;2023-03-25T04:54:45;100098.60;;;8.85;86.88
57412;BME280;43247;52.828;-8.980;2023-03-25T04:55:46;100100.59;;;8.83;86.81
57412;BME280;43247;52.828;-8.980;2023-03-25T04:56:47;100105.07;;;8.84;86.83
57412;BME280;43247;52.828;-8.980;2023-03-25T04:57:48;100109.50;;;8.84;86.82
57412;BME280;43247;52.828;-8.980;2023-03-25T04:58:47;100108.06;;;8.83;86.80
57412;BME280;43247;52.828;-8.980;2023-03-25T04:59:47;100110.24;;;8.83;86.74
57412;BME280;43247;52.828;-8.980;2023-03-25T05:00:50;100113.67;;;8.83;86.60
57412;BME280;43247;52.828;-8.980;2023-03-25T05:01:48;100114.96;;;8.84;86.64
57412;BME280;43247;52.828;-8.980;2023-03-25T05:02:50;100117.72;;;8.83;86.69
57412;BME280;43247;52.828;-8.980;2023-03-25T05:03:48;100116.25;;;8.82;86.71
57412;BME280;43247;52.828;-8.980;2023-03-25T05:04:48;100117.60;;;8.82;86.81
57412;BME280;43247;52.828;-8.980;2023-03-25T05:05:48;100116.60;;;8.81;86.75
57412;BME280;43247;52.828;-8.980;2023-03-25T05:06:49;100116.34;;;8.82;86.73
57412;BME280;43247;52.828;-8.980;2023-03-25T05:07:50;100119.17;;;8.81;86.78
57412;BME280;43247;52.828;-8.980;2023-03-25T05:08:49;100120.94;;;8.81;86.83
57412;BME280;43247;52.828;-8.980;2023-03-25T05:09:49;100126.75;;;8.81;86.77
57412;BME280;43247;52.828;-8.980;2023-03-25T05:10:49;100122.91;;;8.81;86.78
57412;BME280;43247;52.828;-8.980;2023-03-25T05:11:50;100123.24;;;8.81;86.87
57412;BME280;43247;52.828;-8.980;2023-03-25T05:12:50;100122.12;;;8.80;86.75
57412;BME280;43247;52.828;-8.980;2023-03-25T05:13:50;100124.95;;;8.81;86.81
57412;BME280;43247;52.828;-8.980;2023-03-25T05:14:50;100128.17;;;8.81;86.81
57412;BME280;43247;52.828;-8.980;2023-03-25T05:15:50;100124.97;;;8.80;86.84
57412;BME280;43247;52.828;-8.980;2023-03-25T05:16:50;100126.62;;;8.79;86.92
57412;BME280;43247;52.828;-8.980;2023-03-25T05:17:50;100127.90;;;8.79;86.91
57412;BME280;43247;52.828;-8.980;2023-03-25T05:18:51;100128.07;;;8.79;87.00
57412;BME280;43247;52.828;-8.980;2023-03-25T05:19:51;100125.28;;;8.79;86.97
57412;BME280;43247;52.828;-8.980;2023-03-25T05:20:51;100127.97;;;8.79;86.94
57412;BME280;43247;52.828;-8.980;2023-03-25T05:21:52;100129.50;;;8.81;86.87
57412;BME280;43247;52.828;-8.980;2023-03-25T05:22:52;100131.13;;;8.80;86.92
57412;BME280;43247;52.828;-8.980;2023-03-25T05:23:52;100137.96;;;8.79;86.94
57412;BME280;43247;52.828;-8.980;2023-03-25T05:24:52;100143.90;;;8.80;86.88
57412;BME280;43247;52.828;-8.980;2023-03-25T05:25:52;100147.56;;;8.79;86.92